Strool, South Dakota
Current Conditions -  °F | °C
As of 11:53 AM on Friday 28 Nov 2014 (Local Time) from KHEI Reporting Station
Clear Clear  
Wind Chill:   Ceiling: Unl
Heat Index:   Visibility: 10mi
Dew Point: -2°   Wind: 5mph
Humidity: 65%   Direction: 120°ESE
Pressure: 29.58"   Gusts: NA
Location:  45.6029°N, 102.827°W
Report Text: KHEI 281853Z AUTO 12004KT 10SM CLR 04/M02 A2958 RMK AO2 SLP039 T00391022
Loading
Personal Weather Stations






























Interactive Weather Map New forecast layout! Learn more

10-Day Weather Forecast

Advertisements
Track Severe Weather on mobile